This is the latest recevied weather packets stored in our database for station/object E25WRM. If no packets are shown the sender has not sent any weather packets the latest 10 day(s).
| Time | Temp. | Humidity | Pressure | Rain* | Wind** | Luminosity | Snow |
|---|---|---|---|---|---|---|---|
| 1778095799 | 33.89° C | 29% | 1001 hPa | - | - | 0 W/m² | - |
| 1778094863 | 33.89° C | 29% | 1001 hPa | - | - | 0 W/m² | - |
| 1778093953 | 33.89° C | 30% | 1001 hPa | - | - | 0 W/m² | - |
| 1778093043 | 34.44° C | 31% | 1001 hPa | - | - | 0 W/m² | - |
| 1778092133 | 34.44° C | 32% | 1001 hPa | - | - | 0 W/m² | - |
| 1778091223 | 34.44° C | 33% | 1001 hPa | - | - | 0 W/m² | - |
| 1778090313 | 35° C | 35% | 1001 hPa | - | - | 0 W/m² | - |
| 1778089403 | 35.56° C | 36% | 1001 hPa | - | - | 0 W/m² | - |
| 1778088493 | 37.22° C | 40% | 1002 hPa | - | - | 0 W/m² | - |
| 1778087583 | 40° C | 44% | 1002 hPa | - | - | 0 W/m² | - |
| 1778086673 | 40° C | 44% | 1002 hPa | - | - | 0 W/m² | - |
| 1778085763 | 40° C | 44% | 1002 hPa | - | - | 0 W/m² | - |
| 1778084853 | 40° C | 44% | 1002 hPa | - | - | 0 W/m² | - |
| 1778083943 | 40° C | 45% | 1002 hPa | - | - | 0 W/m² | - |
| 1778083033 | 40° C | 45% | 1002 hPa | - | - | 0 W/m² | - |
| 1778082123 | 40° C | 45% | 1002 hPa | - | - | 0 W/m² | - |
| 1778081213 | 40° C | 44% | 1002 hPa | - | - | 0 W/m² | - |
| 1778080303 | 40° C | 43% | 1002 hPa | - | - | 0 W/m² | - |
| 1778079393 | 40.56° C | 41% | 1002 hPa | - | - | 0 W/m² | - |
| 1778078483 | 40.56° C | 41% | 1002 hPa | - | - | 0 W/m² | - |
| 1778077573 | 40° C | 41% | 1001 hPa | - | - | 0 W/m² | - |
| 1778076663 | 40.56° C | 41% | 1001 hPa | - | - | 0 W/m² | - |
| 1778075753 | 40.56° C | 41% | 1001 hPa | - | - | 0 W/m² | - |
| 1778074843 | 40.56° C | 40% | 1001 hPa | - | - | 0 W/m² | - |
| 1778073933 | 40.56° C | 40% | 1001 hPa | - | - | 0 W/m² | - |
* Rain since midnight (hover to see other rain measurements)
** Current wind speed in m/s (hover to see current wind gust speed)